Time;durP1;ratioP1;P1;durP2;ratioP2;P2;SDS_P1;SDS_P2;PMS_P1;PMS_P2;Temp;Humidity;BMP_temperature;BMP_pressure;BME280_temperature;BME280_humidity;BME280_pressure;Samples;Min_cycle;Max_cycle;Signal;HPM_P1;HPM_P2
2023/06/27 00:00:17;;;;;;;6.45;2.53;;;;;;;15.96;70.96;101883.06;4995441;28;20042;-71
2023/06/27 00:02:46;;;;;;;9.02;2.97;;;;;;;15.92;71.34;101893.41;4988868;28;20133;-70
2023/06/27 00:05:12;;;;;;;10.18;2.83;;;;;;;15.90;72.09;101886.28;4988107;28;20041;-70
2023/06/27 00:07:38;;;;;;;10.75;3.58;;;;;;;15.89;71.40;101890.00;4987640;28;20440;-71
2023/06/27 00:10:04;;;;;;;4.85;2.50;;;;;;;15.89;71.94;101896.38;4987732;28;20045;-71
2023/06/27 00:12:30;;;;;;;6.20;2.83;;;;;;;15.90;71.95;101902.72;4991693;28;20049;-70
2023/06/27 00:14:56;;;;;;;6.22;3.00;;;;;;;15.89;71.06;101888.13;4996800;28;20034;-70
2023/06/27 00:17:23;;;;;;;7.45;2.85;;;;;;;15.87;71.55;101887.41;4987797;28;20037;-70
2023/06/27 00:19:49;;;;;;;11.63;2.85;;;;;;;15.87;72.71;101897.50;4987775;28;20042;-71
2023/06/27 00:22:14;;;;;;;7.75;3.03;;;;;;;15.85;71.36;101892.13;4987685;28;20057;-71
2023/06/27 00:24:40;;;;;;;6.05;3.22;;;;;;;15.83;72.18;101894.13;4988282;28;20080;-70
2023/06/27 00:27:06;;;;;;;8.30;3.10;;;;;;;15.77;71.89;101892.72;4987794;28;20041;-70
2023/06/27 00:29:32;;;;;;;5.03;3.25;;;;;;;15.73;73.20;101896.72;4988071;28;20394;-71
2023/06/27 00:31:58;;;;;;;11.50;3.83;;;;;;;15.69;73.24;101897.94;4986258;28;20057;-71
2023/06/27 00:34:23;;;;;;;6.50;3.50;;;;;;;15.67;72.88;101888.09;4987825;28;20034;-70
2023/06/27 00:36:49;;;;;;;8.40;3.33;;;;;;;15.70;72.71;101891.44;5001548;28;20064;-71
2023/06/27 00:39:14;;;;;;;11.05;3.28;;;;;;;15.71;72.45;101889.56;5002455;28;20039;-71
2023/06/27 00:41:40;;;;;;;5.53;3.45;;;;;;;15.69;72.68;101888.81;5002805;28;20076;-71
2023/06/27 00:44:08;;;;;;;10.35;3.53;;;;;;;15.69;73.38;101892.44;4987702;28;20518;-70
2023/06/27 00:46:38;;;;;;;5.63;3.15;;;;;;;15.70;72.54;101885.09;4987570;28;20418;-70
2023/06/27 00:49:06;;;;;;;4.55;2.90;;;;;;;15.70;73.64;101893.31;5002242;28;20038;-71
2023/06/27 00:51:32;;;;;;;10.20;3.03;;;;;;;15.66;73.33;101895.41;4987310;28;20096;-71
2023/06/27 00:53:58;;;;;;;6.63;3.42;;;;;;;15.62;73.39;101893.00;4986943;28;20065;-70
2023/06/27 00:56:24;;;;;;;9.60;3.70;;;;;;;15.57;73.11;101897.00;5002436;28;20081;-71
2023/06/27 00:58:50;;;;;;;11.48;3.53;;;;;;;15.58;73.74;101903.34;4994570;28;20034;-71
2023/06/27 01:01:16;;;;;;;11.38;3.15;;;;;;;15.56;73.16;101899.84;4990337;28;20465;-71
2023/06/27 01:03:42;;;;;;;7.68;3.55;;;;;;;15.56;73.41;101908.06;5006838;28;20132;-70
2023/06/27 01:06:34;;;;;;;9.82;3.45;;;;;;;15.59;72.61;101896.00;4989186;28;20478;-70
2023/06/27 01:09:04;;;;;;;8.27;3.53;;;;;;;15.56;73.87;101902.56;4988219;28;20490;-70
2023/06/27 01:11:39;;;;;;;7.57;2.97;;;;;;;15.52;73.63;101904.66;4989315;28;20038;-70
2023/06/27 01:14:08;;;;;;;14.63;4.03;;;;;;;15.51;74.53;101899.31;4991814;28;20419;-70
2023/06/27 01:16:35;;;;;;;7.32;3.35;;;;;;;15.47;74.25;101904.16;4991596;28;20490;-70
2023/06/27 01:19:01;;;;;;;8.77;3.35;;;;;;;15.46;73.94;101894.19;5006087;28;20441;-70
2023/06/27 01:21:28;;;;;;;11.88;3.67;;;;;;;15.45;74.19;101899.78;4990558;28;20026;-70
2023/06/27 01:23:58;;;;;;;11.43;3.53;;;;;;;15.45;74.57;101892.44;4990598;28;20522;-70
2023/06/27 01:26:24;;;;;;;12.15;3.47;;;;;;;15.43;75.32;101894.41;5005360;28;20148;-70
2023/06/27 01:28:50;;;;;;;10.95;3.28;;;;;;;15.40;73.79;101902.00;4991059;28;20121;-71
2023/06/27 01:31:36;;;;;;;7.63;3.63;;;;;;;15.39;74.49;101903.88;5010167;28;20041;-71
2023/06/27 01:34:17;;;;;;;9.07;3.88;;;;;;;15.36;74.50;101904.09;5010332;28;20141;-70
2023/06/27 01:36:56;;;;;;;9.48;3.88;;;;;;;15.34;74.20;101906.09;5008079;28;20474;-71
2023/06/27 01:39:28;;;;;;;8.32;3.88;;;;;;;15.34;74.69;101907.94;4989994;28;20037;-70
2023/06/27 01:42:03;;;;;;;9.18;3.80;;;;;;;15.34;73.52;101899.72;4990569;28;20065;-70
2023/06/27 01:44:31;;;;;;;10.52;3.70;;;;;;;15.31;74.87;101896.22;5004766;28;20435;-70
2023/06/27 01:46:56;;;;;;;7.80;3.67;;;;;;;15.32;74.48;101899.84;4990500;28;20045;-70
2023/06/27 01:49:24;;;;;;;6.50;4.03;;;;;;;15.34;74.20;101897.88;5005792;28;20036;-70
2023/06/27 01:51:49;;;;;;;9.60;3.63;;;;;;;15.37;74.05;101902.22;5007798;28;20434;-70
2023/06/27 01:54:15;;;;;;;11.00;3.45;;;;;;;15.37;74.12;101891.25;4990610;28;20141;-71
2023/06/27 01:56:40;;;;;;;10.55;3.67;;;;;;;15.34;74.68;101891.47;4990370;28;20022;-70
2023/06/27 01:59:06;;;;;;;8.52;3.78;;;;;;;15.34;74.68;101894.22;5005448;28;20042;-71
2023/06/27 02:01:32;;;;;;;8.82;3.70;;;;;;;15.35;74.45;101893.25;5005147;28;20107;-70
2023/06/27 02:03:57;;;;;;;12.13;3.55;;;;;;;15.34;75.71;101895.13;4988906;28;20034;-71
2023/06/27 02:06:22;;;;;;;11.25;3.65;;;;;;;15.31;75.36;101890.75;4990010;28;20042;-71
2023/06/27 02:08:48;;;;;;;8.82;3.33;;;;;;;15.28;75.21;101884.59;4988286;28;20023;-70
2023/06/27 02:11:13;;;;;;;10.48;3.50;;;;;;;15.23;76.50;101882.22;5004793;28;20077;-71
2023/06/27 02:13:40;;;;;;;14.98;3.70;;;;;;;15.23;76.14;101878.59;4990877;28;20083;-70
2023/06/27 02:16:06;;;;;;;11.95;3.63;;;;;;;15.27;75.19;101880.13;5022415;28;20034;-70
2023/06/27 02:18:31;;;;;;;9.63;3.38;;;;;;;15.27;75.77;101883.72;4995559;28;20088;-71
2023/06/27 02:20:56;;;;;;;13.48;3.50;;;;;;;15.26;75.66;101875.63;5004744;28;20054;-71
2023/06/27 02:23:22;;;;;;;8.32;3.53;;;;;;;15.24;76.29;101877.59;4989541;28;20046;-70
2023/06/27 02:25:49;;;;;;;10.88;3.45;;;;;;;15.23;76.22;101867.63;4988868;28;20050;-70
2023/06/27 02:28:14;;;;;;;8.10;3.33;;;;;;;15.25;75.65;101876.63;4999100;28;20053;-71
2023/06/27 02:30:41;;;;;;;9.60;3.30;;;;;;;15.24;75.87;101878.47;4995522;28;20030;-71
2023/06/27 02:33:06;;;;;;;7.28;3.30;;;;;;;15.24;76.61;101875.72;5004662;28;20443;-70
2023/06/27 02:35:32;;;;;;;6.05;3.42;;;;;;;15.24;76.20;101874.84;5004218;28;20053;-70
2023/06/27 02:37:57;;;;;;;8.55;3.20;;;;;;;15.25;75.48;101871.16;4989451;28;20085;-70
2023/06/27 02:40:22;;;;;;;8.80;3.72;;;;;;;15.21;76.28;101872.38;4988950;28;20066;-70
2023/06/27 02:42:48;;;;;;;13.38;4.03;;;;;;;15.22;75.47;101864.03;5003715;28;20046;-71
2023/06/27 02:45:13;;;;;;;7.28;3.50;;;;;;;15.19;76.11;101866.97;4988522;28;20037;-70
2023/06/27 02:47:38;;;;;;;9.63;3.33;;;;;;;15.17;76.29;101860.75;4990910;28;20030;-70
2023/06/27 02:50:04;;;;;;;13.15;3.58;;;;;;;15.15;76.66;101873.69;4990940;28;20037;-70
2023/06/27 02:52:30;;;;;;;8.82;3.38;;;;;;;15.16;76.22;101869.09;4991765;28;20038;-70
2023/06/27 02:54:55;;;;;;;9.85;3.92;;;;;;;15.13;76.79;101872.06;5003659;28;20026;-70
2023/06/27 02:57:21;;;;;;;7.03;3.20;;;;;;;15.11;76.74;101863.06;5004045;28;20092;-71
2023/06/27 02:59:47;;;;;;;10.13;2.83;;;;;;;15.12;75.92;101870.31;5003932;28;20104;-70
2023/06/27 03:02:15;;;;;;;6.75;3.60;;;;;;;15.07;76.98;101876.16;5004003;28;20066;-71
2023/06/27 03:04:40;;;;;;;15.88;4.22;;;;;;;15.04;77.09;101879.97;5004396;28;20157;-70
2023/06/27 03:07:06;;;;;;;10.45;3.75;;;;;;;15.04;76.21;101879.97;5003661;28;20564;-70
2023/06/27 03:09:32;;;;;;;12.18;4.43;;;;;;;15.04;76.14;101879.09;5003003;28;20046;-70
2023/06/27 03:11:58;;;;;;;14.18;3.78;;;;;;;15.03;76.81;101877.38;5003570;28;20177;-70
2023/06/27 03:14:26;;;;;;;6.93;3.22;;;;;;;15.02;76.26;101870.13;4987175;28;20034;-71
2023/06/27 03:16:54;;;;;;;10.18;3.78;;;;;;;15.01;76.43;101882.97;5003908;28;20102;-71
2023/06/27 03:19:19;;;;;;;12.25;3.50;;;;;;;14.99;77.64;101884.06;5003554;28;20358;-71
2023/06/27 03:21:45;;;;;;;9.98;3.50;;;;;;;14.98;77.60;101874.09;5002593;28;20121;-71
2023/06/27 03:24:10;;;;;;;9.30;4.03;;;;;;;14.95;77.98;101872.44;5004161;28;20030;-70
2023/06/27 03:26:41;;;;;;;8.30;3.38;;;;;;;14.95;77.56;101874.31;5003786;28;20394;-70
2023/06/27 03:29:07;;;;;;;12.55;3.90;;;;;;;14.94;77.60;101873.44;5003801;28;20042;-70
2023/06/27 03:31:32;;;;;;;10.00;3.50;;;;;;;14.93;77.97;101879.91;5003601;28;20018;-71
2023/06/27 03:33:59;;;;;;;11.38;3.60;;;;;;;14.91;77.84;101879.13;5003171;28;20471;-71
2023/06/27 03:36:25;;;;;;;8.95;2.92;;;;;;;14.92;77.98;101878.16;4986896;28;20044;-70
2023/06/27 03:38:51;;;;;;;9.05;3.08;;;;;;;14.91;77.58;101876.41;4986474;28;20030;-70
2023/06/27 03:41:17;;;;;;;7.03;3.40;;;;;;;14.91;78.51;101887.34;5002343;28;20030;-71
2023/06/27 03:43:42;;;;;;;9.30;3.95;;;;;;;14.90;78.78;101890.22;5016064;28;20036;-70
2023/06/27 03:46:14;;;;;;;9.93;3.45;;;;;;;14.90;78.05;101888.34;4987510;28;20120;-70
2023/06/27 03:48:39;;;;;;;12.48;3.75;;;;;;;14.90;77.81;101888.34;4991490;28;20038;-70
2023/06/27 03:51:04;;;;;;;12.48;3.40;;;;;;;14.87;78.47;101885.81;4987720;28;20412;-70
2023/06/27 03:53:30;;;;;;;6.32;3.05;;;;;;;14.89;78.57;101885.72;5003037;28;20041;-71
2023/06/27 03:55:55;;;;;;;9.30;3.47;;;;;;;14.90;79.04;101890.22;5002249;28;20046;-71
2023/06/27 03:58:21;;;;;;;11.88;3.45;;;;;;;14.89;79.15;101886.59;5002773;28;20552;-71
2023/06/27 04:00:52;;;;;;;12.40;3.55;;;;;;;14.85;78.09;101886.94;5003027;28;20462;-70
2023/06/27 04:03:17;;;;;;;15.60;4.50;;;;;;;14.80;79.98;101884.53;5003434;28;20096;-71
2023/06/27 04:05:43;;;;;;;9.07;3.70;;;;;;;14.83;78.90;101884.34;5003342;28;20131;-70
2023/06/27 04:08:09;;;;;;;8.63;3.40;;;;;;;14.82;79.33;101884.41;5002235;28;20026;-70
2023/06/27 04:10:35;;;;;;;12.82;3.40;;;;;;;14.79;79.48;101883.69;4984790;28;20052;-70
2023/06/27 04:13:00;;;;;;;12.77;4.40;;;;;;;14.81;79.85;101889.03;4988151;28;20030;-70
2023/06/27 04:15:25;;;;;;;14.82;4.50;;;;;;;14.77;79.92;101885.63;5002757;28;20109;-71
2023/06/27 04:17:51;;;;;;;11.00;3.90;;;;;;;14.72;79.09;101882.34;4987905;28;20121;-70
2023/06/27 04:20:16;;;;;;;15.02;3.95;;;;;;;14.74;79.76;101885.00;5002328;28;20081;-70
2023/06/27 04:22:42;;;;;;;14.40;4.20;;;;;;;14.72;80.75;101882.34;5002728;28;20539;-70
2023/06/27 04:25:10;;;;;;;12.05;3.78;;;;;;;14.71;80.64;101886.09;4985492;28;20133;-70
2023/06/27 04:27:37;;;;;;;10.82;3.45;;;;;;;14.74;79.82;101885.00;4985764;28;20059;-70
2023/06/27 04:30:03;;;;;;;16.20;4.18;;;;;;;14.75;80.50;101884.88;4988201;28;20042;-71
2023/06/27 04:32:28;;;;;;;11.13;3.95;;;;;;;14.73;79.96;101888.72;4987488;28;20058;-70
2023/06/27 04:34:57;;;;;;;13.45;4.00;;;;;;;14.72;79.65;101886.97;5002247;28;20082;-71
2023/06/27 04:37:23;;;;;;;7.05;3.75;;;;;;;14.74;79.94;101896.84;4986711;28;20121;-70
2023/06/27 04:39:49;;;;;;;9.48;3.50;;;;;;;14.74;79.95;101896.84;4987015;28;20129;-71
2023/06/27 04:42:14;;;;;;;12.43;4.38;;;;;;;14.73;79.84;101895.06;4987696;28;20121;-70
2023/06/27 04:44:40;;;;;;;10.25;3.67;;;;;;;14.73;80.74;101894.19;4988635;28;20161;-70
2023/06/27 04:47:05;;;;;;;9.75;4.07;;;;;;;14.70;80.95;101898.03;5002479;28;20033;-70
2023/06/27 04:49:30;;;;;;;21.10;4.10;;;;;;;14.73;79.78;101895.06;5005158;28;20030;-71
2023/06/27 04:51:56;;;;;;;15.77;4.38;;;;;;;14.76;79.56;101899.47;4990090;28;20046;-71
2023/06/27 04:54:21;;;;;;;11.23;4.00;;;;;;;14.75;80.38;101897.72;4987376;28;20034;-70
2023/06/27 04:56:47;;;;;;;8.20;3.58;;;;;;;14.75;80.04;101903.19;4987133;28;20121;-71
2023/06/27 04:59:12;;;;;;;11.57;3.90;;;;;;;14.73;80.73;101899.66;4988257;28;20095;-71
2023/06/27 05:01:38;;;;;;;9.88;3.78;;;;;;;14.73;80.55;101902.41;4987342;28;20113;-70
2023/06/27 05:04:06;;;;;;;10.00;5.10;;;;;;;14.75;80.80;101906.81;4987950;28;20161;-70
2023/06/27 05:06:33;;;;;;;10.25;4.10;;;;;;;14.84;80.18;101899.78;4987581;28;20042;-70
2023/06/27 05:08:58;;;;;;;12.40;3.70;;;;;;;14.89;80.59;101903.03;4986880;28;20030;-71
2023/06/27 05:11:24;;;;;;;12.73;3.70;;;;;;;14.94;79.91;101908.19;4987435;28;20610;-70
2023/06/27 05:13:49;;;;;;;14.93;4.38;;;;;;;15.01;80.28;101913.13;4987179;28;20034;-70
2023/06/27 05:16:15;;;;;;;13.98;4.75;;;;;;;15.05;81.71;101900.91;5001832;28;20122;-71
2023/06/27 05:18:41;;;;;;;12.02;4.50;;;;;;;15.11;82.09;101907.81;4986435;28;20037;-70
2023/06/27 05:21:07;;;;;;;9.57;4.10;;;;;;;15.17;81.55;101906.47;4985075;28;20367;-70
2023/06/27 05:23:32;;;;;;;10.57;4.10;;;;;;;15.20;80.39;101904.41;5001768;28;20117;-70
2023/06/27 05:25:58;;;;;;;10.60;4.00;;;;;;;15.25;80.21;101904.03;4986355;28;20050;-70
2023/06/27 05:28:23;;;;;;;13.60;4.30;;;;;;;15.28;81.13;101899.19;5002264;28;20026;-70
2023/06/27 05:30:49;;;;;;;16.40;4.70;;;;;;;15.37;79.81;101903.09;5001567;28;20427;-70
2023/06/27 05:33:14;;;;;;;15.00;4.82;;;;;;;15.45;81.02;101906.16;4987383;28;20661;-70
2023/06/27 05:35:40;;;;;;;11.50;4.95;;;;;;;15.53;81.29;101905.56;4987238;28;20061;-70
2023/06/27 05:38:06;;;;;;;15.88;4.15;;;;;;;15.61;81.22;101908.56;4986793;28;20054;-70
2023/06/27 05:40:31;;;;;;;9.63;4.45;;;;;;;15.69;79.65;101910.78;5001142;28;20034;-70
2023/06/27 05:42:57;;;;;;;16.02;4.90;;;;;;;15.80;80.49;101905.31;4986940;28;20387;-70
2023/06/27 05:45:22;;;;;;;17.05;5.10;;;;;;;15.85;82.27;101899.47;4991177;28;20041;-70
2023/06/27 05:47:47;;;;;;;12.18;5.00;;;;;;;15.90;81.42;101905.47;5005198;28;20034;-70
2023/06/27 05:50:13;;;;;;;13.27;5.10;;;;;;;15.97;80.00;101898.53;4989424;28;20117;-70
2023/06/27 05:52:38;;;;;;;10.43;3.95;;;;;;;16.02;79.80;101894.41;4990435;28;20027;-70
2023/06/27 05:55:04;;;;;;;17.67;5.22;;;;;;;16.03;81.87;101895.28;4990323;28;20038;-70
2023/06/27 05:57:29;;;;;;;18.85;5.95;;;;;;;16.03;81.32;101898.91;4990511;28;20112;-71
2023/06/27 05:59:55;;;;;;;13.00;4.93;;;;;;;16.05;81.15;101902.44;4991305;28;20447;-70
2023/06/27 06:02:20;;;;;;;12.65;4.97;;;;;;;16.10;81.38;101910.31;5005003;28;20562;-71
2023/06/27 06:04:45;;;;;;;17.95;5.03;;;;;;;16.12;81.16;101904.69;4990810;28;20033;-70
2023/06/27 06:07:11;;;;;;;22.92;6.75;;;;;;;16.14;80.23;101899.97;4990148;28;20034;-70
2023/06/27 06:09:36;;;;;;;17.67;5.30;;;;;;;16.19;81.29;101898.59;5004132;28;20038;-70
2023/06/27 06:12:02;;;;;;;16.73;5.07;;;;;;;16.23;80.87;101894.59;4989959;28;20455;-70
2023/06/27 06:14:28;;;;;;;19.65;5.22;;;;;;;16.31;81.18;101899.47;4991285;28;20095;-71
2023/06/27 06:16:53;;;;;;;14.30;4.90;;;;;;;16.36;80.72;101896.34;4989986;28;20014;-70
2023/06/27 06:19:19;;;;;;;22.63;6.40;;;;;;;16.41;80.98;101894.09;5004944;28;20030;-70
2023/06/27 06:21:44;;;;;;;17.05;5.72;;;;;;;16.45;80.20;101899.22;5004240;28;20038;-71
2023/06/27 06:24:10;;;;;;;19.10;6.25;;;;;;;16.48;80.83;101899.00;4990403;28;20022;-70
2023/06/27 06:26:36;;;;;;;20.52;5.82;;;;;;;16.54;81.62;101900.38;4989348;28;20034;-70
2023/06/27 06:29:02;;;;;;;20.70;6.50;;;;;;;16.60;83.83;101899.91;5004814;28;20027;-70
2023/06/27 06:31:27;;;;;;;18.38;5.88;;;;;;;16.64;82.78;101893.13;4990187;28;20052;-70
2023/06/27 06:33:53;;;;;;;16.65;5.80;;;;;;;16.73;82.11;101900.66;5004615;28;20106;-70
2023/06/27 06:36:19;;;;;;;16.98;5.88;;;;;;;16.81;81.21;101909.16;5004502;28;20157;-70
2023/06/27 06:38:44;;;;;;;19.50;5.88;;;;;;;16.90;81.91;101903.91;4989843;28;20070;-70
2023/06/27 06:41:10;;;;;;;18.63;5.97;;;;;;;16.95;81.29;101910.78;4989148;28;20037;-70
2023/06/27 06:43:35;;;;;;;19.92;5.80;;;;;;;17.02;82.68;101916.63;4990562;28;20431;-70
2023/06/27 06:46:01;;;;;;;13.50;6.07;;;;;;;17.11;81.08;101920.50;5004120;28;20097;-70
2023/06/27 06:48:26;;;;;;;18.42;6.93;;;;;;;17.16;81.61;101924.63;4989259;28;20046;-70
2023/06/27 06:50:52;;;;;;;13.48;6.35;;;;;;;17.22;83.37;101915.84;5003613;28;20394;-70
2023/06/27 06:53:18;;;;;;;13.00;6.28;;;;;;;17.38;81.66;101928.31;4988939;28;20061;-70
2023/06/27 06:55:44;;;;;;;15.60;6.43;;;;;;;17.48;81.14;101921.03;4989270;28;20029;-70
2023/06/27 06:58:09;;;;;;;20.23;6.20;;;;;;;17.56;80.68;101924.03;4994824;28;20053;-70
2023/06/27 07:00:35;;;;;;;14.75;6.25;;;;;;;17.66;80.04;101926.84;4995598;28;20523;-70
2023/06/27 07:03:00;;;;;;;16.77;5.90;;;;;;;17.70;78.16;101920.97;4987801;28;20428;-70
2023/06/27 07:05:26;;;;;;;16.35;6.82;;;;;;;17.76;79.61;101928.72;4988855;28;20038;-70
2023/06/27 07:07:51;;;;;;;22.17;7.05;;;;;;;17.85;79.98;101921.56;4988556;28;20060;-70
2023/06/27 07:10:16;;;;;;;19.42;5.53;;;;;;;17.96;79.39;101921.53;5003143;28;20041;-71
2023/06/27 07:12:42;;;;;;;14.30;5.05;;;;;;;18.16;78.61;101921.66;4989735;28;20066;-70
2023/06/27 07:15:08;;;;;;;13.75;4.78;;;;;;;18.44;77.44;101922.84;4989382;28;20399;-70
2023/06/27 07:17:33;;;;;;;14.60;5.47;;;;;;;18.67;76.47;101926.31;4987551;28;20097;-70
2023/06/27 07:20:01;;;;;;;14.80;4.78;;;;;;;18.85;75.37;101931.09;4988691;28;20423;-69
2023/06/27 07:22:27;;;;;;;17.10;5.20;;;;;;;19.13;74.74;101933.22;4988380;28;20075;-70
2023/06/27 07:24:52;;;;;;;11.05;4.70;;;;;;;19.41;74.28;101926.91;4988483;28;20482;-70
2023/06/27 07:27:18;;;;;;;12.05;4.55;;;;;;;19.65;73.63;101934.81;5003947;28;20089;-71
2023/06/27 07:29:44;;;;;;;12.70;3.50;;;;;;;19.69;66.96;101927.13;4987693;28;20033;-70
2023/06/27 07:32:13;;;;;;;12.27;4.20;;;;;;;19.88;70.97;101924.38;4988605;28;20065;-70
2023/06/27 07:34:39;;;;;;;10.15;3.40;;;;;;;20.10;67.40;101917.69;4988433;28;20115;-70
2023/06/27 07:37:06;;;;;;;15.27;3.53;;;;;;;20.28;69.11;101920.53;4988376;28;20061;-70
2023/06/27 07:39:32;;;;;;;9.73;3.38;;;;;;;20.31;68.94;101915.59;5002655;28;20034;-70
2023/06/27 07:41:57;;;;;;;13.05;3.58;;;;;;;20.53;66.65;101916.31;4988538;28;20433;-70
2023/06/27 07:44:23;;;;;;;7.93;2.65;;;;;;;20.72;65.81;101919.00;4989194;28;20034;-70
2023/06/27 07:46:48;;;;;;;6.45;2.08;;;;;;;20.94;63.06;101923.31;4986953;28;20030;-70
2023/06/27 07:49:15;;;;;;;7.90;1.88;;;;;;;21.15;60.80;101920.25;5004424;28;20067;-70
2023/06/27 07:51:40;;;;;;;7.10;1.63;;;;;;;21.23;59.98;101912.06;5001136;28;20482;-70
2023/06/27 07:54:06;;;;;;;11.02;2.20;;;;;;;21.29;57.30;101924.41;4987911;28;20073;-69
2023/06/27 07:56:31;;;;;;;11.02;2.30;;;;;;;21.30;58.09;101924.25;5003009;28;20072;-70
2023/06/27 07:58:58;;;;;;;5.10;1.67;;;;;;;21.30;59.70;101910.41;4988353;28;20157;-70
2023/06/27 08:01:24;;;;;;;6.72;1.70;;;;;;;21.31;58.11;101911.31;4988552;28;20030;-69
2023/06/27 08:03:49;;;;;;;12.45;2.05;;;;;;;21.32;57.06;101915.84;4988161;28;20563;-70
2023/06/27 08:06:15;;;;;;;12.63;2.20;;;;;;;21.47;59.50;101917.06;4987028;28;20117;-70
2023/06/27 08:08:40;;;;;;;7.03;1.75;;;;;;;21.74;57.27;101918.03;4988061;28;20105;-70
2023/06/27 08:11:05;;;;;;;7.63;1.90;;;;;;;21.95;55.51;101909.38;4987274;28;20046;-70
2023/06/27 08:13:31;;;;;;;13.45;2.20;;;;;;;22.17;57.31;101916.38;4988564;28;20493;-69
2023/06/27 08:15:56;;;;;;;8.27;1.92;;;;;;;22.37;57.02;101917.91;4988104;28;20054;-69
2023/06/27 08:18:22;;;;;;;6.13;1.95;;;;;;;22.56;54.05;101909.34;4987724;28;20084;-70
2023/06/27 08:20:47;;;;;;;10.10;2.05;;;;;;;22.82;53.83;101909.34;5002730;28;20042;-69
2023/06/27 08:23:12;;;;;;;4.15;1.63;;;;;;;23.01;51.77;101907.38;5002819;28;20080;-70
2023/06/27 08:25:38;;;;;;;6.10;1.90;;;;;;;22.94;53.82;101907.16;5001881;28;20180;-70
2023/06/27 08:28:03;;;;;;;9.55;1.85;;;;;;;23.01;53.94;101907.38;4987398;28;20034;-70
2023/06/27 08:30:29;;;;;;;5.85;2.25;;;;;;;23.02;54.77;101915.53;4988222;28;20461;-70
2023/06/27 08:32:55;;;;;;;7.05;2.08;;;;;;;23.06;52.13;101916.94;4987665;28;20030;-70
2023/06/27 08:35:21;;;;;;;7.93;2.15;;;;;;;23.11;52.65;101909.00;5002404;28;20394;-70
2023/06/27 08:37:46;;;;;;;16.90;2.83;;;;;;;23.30;54.73;101906.97;4986907;28;20054;-70
2023/06/27 08:40:20;;;;;;;8.00;2.03;;;;;;;23.26;53.56;101912.00;4987591;28;20045;-70
2023/06/27 08:42:46;;;;;;;16.10;2.80;;;;;;;23.16;53.97;101906.56;4987827;28;20109;-70
2023/06/27 08:45:12;;;;;;;14.80;2.00;;;;;;;23.10;54.47;101898.94;4987690;28;20455;-69
2023/06/27 08:47:44;;;;;;;8.13;2.10;;;;;;;23.08;56.18;101901.00;4987384;28;20053;-69
2023/06/27 08:50:13;;;;;;;8.05;1.92;;;;;;;23.17;55.00;101897.22;4985795;28;20049;-69
2023/06/27 08:52:43;;;;;;;4.40;1.88;;;;;;;23.30;54.50;101895.88;4987092;28;20042;-70
2023/06/27 08:55:26;;;;;;;11.25;2.03;;;;;;;23.21;53.61;101899.66;4986798;28;20149;-70
2023/06/27 08:57:54;;;;;;;;;;;;;;;23.17;55.39;101900.00;4988031;28;20034;-70
2023/06/27 09:00:22;;;;;;;14.00;2.47;;;;;;;23.10;54.67;101898.06;4997883;28;19917;-70
2023/06/27 09:02:48;;;;;;;16.15;2.58;;;;;;;23.11;54.32;101897.00;5007040;28;20042;-69
2023/06/27 09:05:15;;;;;;;8.10;2.10;;;;;;;23.17;54.81;101894.47;5007134;28;20120;-69
2023/06/27 09:07:41;;;;;;;10.10;1.92;;;;;;;23.22;53.05;101901.38;4991445;28;20038;-68
2023/06/27 09:10:08;;;;;;;8.85;1.88;;;;;;;23.24;51.69;101894.63;4986573;28;20125;-70
2023/06/27 09:12:34;;;;;;;6.95;1.80;;;;;;;23.09;48.97;101897.19;4987922;28;20416;-69
2023/06/27 09:14:59;;;;;;;13.38;2.10;;;;;;;23.04;50.89;101905.16;5002024;28;20072;-69
2023/06/27 09:17:25;;;;;;;8.43;1.92;;;;;;;23.07;51.25;101895.59;5003113;28;20038;-69
2023/06/27 09:19:50;;;;;;;10.93;1.65;;;;;;;23.20;52.43;101900.69;4991434;28;20072;-69
2023/06/27 09:22:18;;;;;;;10.60;1.80;;;;;;;23.14;49.66;101894.78;4990576;28;20197;-70
2023/06/27 09:24:43;;;;;;;13.00;2.00;;;;;;;23.25;49.91;101910.25;4990900;28;20035;-70
2023/06/27 09:27:29;;;;;;;29.13;3.08;;;;;;;23.32;50.77;101893.81;4990916;28;20057;-69
2023/06/27 09:29:59;;;;;;;26.85;3.20;;;;;;;23.29;48.19;101896.91;4991194;28;20054;-70
2023/06/27 09:32:24;;;;;;;11.10;2.08;;;;;;;23.52;48.49;101892.47;4990918;28;20045;-69
2023/06/27 09:34:49;;;;;;;13.38;2.13;;;;;;;23.71;50.26;101896.00;4990994;28;20462;-69
2023/06/27 09:37:19;;;;;;;23.33;1.95;;;;;;;23.64;49.80;101901.34;5004818;28;20481;-70
2023/06/27 09:39:45;;;;;;;16.25;2.28;;;;;;;23.82;50.91;101901.22;4989062;28;20046;-71
2023/06/27 09:42:10;;;;;;;11.15;1.60;;;;;;;24.03;47.86;101903.50;4989498;28;20026;-70
2023/06/27 09:44:35;;;;;;;5.78;1.63;;;;;;;24.10;48.01;101907.31;4990753;28;20051;-69
2023/06/27 09:47:01;;;;;;;4.55;1.33;;;;;;;24.19;45.32;101904.34;4990688;28;20070;-70
2023/06/27 09:49:29;;;;;;;4.03;1.48;;;;;;;24.03;44.83;101909.91;5007737;28;20501;-69
2023/06/27 09:51:55;;;;;;;5.88;1.48;;;;;;;23.96;46.59;101916.34;5007442;28;20103;-70
2023/06/27 09:54:21;;;;;;;19.70;2.08;;;;;;;24.13;47.24;101906.97;4990177;28;20042;-69
2023/06/27 09:56:51;;;;;;;5.13;1.33;;;;;;;24.35;45.53;101922.09;4990044;28;20042;-70
2023/06/27 09:59:19;;;;;;;7.00;1.20;;;;;;;24.35;43.08;101914.59;4990701;28;20543;-71
2023/06/27 10:01:44;;;;;;;9.27;1.90;;;;;;;24.53;42.25;101910.75;4990640;28;20030;-70
2023/06/27 10:04:09;;;;;;;5.03;1.27;;;;;;;25.06;43.71;101904.53;5005918;28;20423;-69
2023/06/27 10:06:35;;;;;;;4.85;1.27;;;;;;;25.31;42.58;101910.88;4989983;28;20045;-70
2023/06/27 10:09:01;;;;;;;3.38;1.23;;;;;;;24.82;42.15;101911.06;4989778;28;20042;-69
2023/06/27 10:11:27;;;;;;;4.15;1.17;;;;;;;24.51;43.17;101905.38;4989820;28;20125;-69
2023/06/27 10:13:53;;;;;;;6.88;1.70;;;;;;;24.65;47.13;101901.88;4991139;28;20088;-69
2023/06/27 10:16:20;;;;;;;4.13;1.30;;;;;;;25.01;43.87;101900.56;5008463;28;20474;-70
2023/06/27 10:18:47;;;;;;;7.13;1.40;;;;;;;25.34;43.88;101904.94;5009614;28;20042;-70
2023/06/27 10:21:14;;;;;;;5.43;1.25;;;;;;;25.61;44.60;101903.56;4996825;28;20482;-69
2023/06/27 10:23:41;;;;;;;11.57;1.45;;;;;;;25.57;42.72;101915.28;4990149;28;20589;-69
2023/06/27 10:26:09;;;;;;;14.05;1.70;;;;;;;25.61;42.31;101911.06;4989400;28;20479;-71
2023/06/27 10:28:36;;;;;;;4.15;1.08;;;;;;;25.47;38.55;101921.06;4989918;28;20042;-70
2023/06/27 10:31:04;;;;;;;1.65;0.90;;;;;;;25.30;40.42;101919.41;5004367;28;20109;-70
2023/06/27 10:33:32;;;;;;;7.43;1.05;;;;;;;25.47;39.63;101911.84;4990247;28;20048;-70
2023/06/27 10:36:05;;;;;;;2.85;1.23;;;;;;;26.04;41.41;101911.47;4989473;28;20474;-69
2023/06/27 10:38:35;;;;;;;6.32;1.10;;;;;;;26.30;39.90;101902.69;4989342;28;20050;-70
2023/06/27 10:41:05;;;;;;;6.80;1.27;;;;;;;26.49;38.71;101904.09;4988641;28;20118;-70
2023/06/27 10:43:45;;;;;;;1.15;0.90;;;;;;;26.67;40.12;101894.34;5005118;28;20494;-70
2023/06/27 10:46:17;;;;;;;3.55;1.15;;;;;;;26.89;36.26;101895.28;4990410;28;20034;-70
2023/06/27 10:48:48;;;;;;;3.53;0.90;;;;;;;27.22;38.56;101900.47;5001989;28;20553;-69
2023/06/27 10:51:19;;;;;;;3.42;1.00;;;;;;;27.50;35.56;101895.00;5009554;28;20033;-70
2023/06/27 10:54:07;;;;;;;4.82;0.93;;;;;;;27.52;36.19;101900.44;5008350;28;20433;-71
2023/06/27 10:56:34;;;;;;;4.13;1.25;;;;;;;27.46;34.86;101902.06;4988784;28;20106;-70
2023/06/27 10:59:03;;;;;;;3.05;0.75;;;;;;;27.87;37.08;101898.69;4989730;28;20053;-70
2023/06/27 11:01:30;;;;;;;3.75;1.00;;;;;;;28.25;36.27;101892.78;5008391;28;20065;-69
2023/06/27 11:03:58;;;;;;;4.38;0.82;;;;;;;28.30;33.51;101885.50;5008794;28;20042;-70
2023/06/27 11:06:39;;;;;;;4.68;0.82;;;;;;;28.37;35.16;101894.00;5004079;28;20057;-69
2023/06/27 11:09:05;;;;;;;3.88;1.02;;;;;;;28.16;34.69;101892.91;4988781;28;20042;-71
2023/06/27 11:11:31;;;;;;;8.68;1.45;;;;;;;28.01;34.36;101903.34;4990150;28;20029;-71
2023/06/27 11:14:07;;;;;;;4.20;1.10;;;;;;;27.70;35.08;101898.06;4989051;28;20379;-70
2023/06/27 11:16:34;;;;;;;3.95;1.10;;;;;;;27.49;35.47;101890.50;5004214;28;20045;-71
2023/06/27 11:19:00;;;;;;;5.55;1.17;;;;;;;27.58;35.29;101892.09;4989530;28;20017;-69